Time;durP1;ratioP1;P1;durP2;ratioP2;P2;SDS_P1;SDS_P2;PMS_P1;PMS_P2;Temp;Humidity;BMP_temperature;BMP_pressure;BME280_temperature;BME280_humidity;BME280_pressure;Samples;Min_cycle;Max_cycle;Signal;HPM_P1;HPM_P2
2021/05/31 00:01:42;;;;;;;2.43;2.23;;;16.10;90.60;;;;;;5056133;28;20228;-74
2021/05/31 00:04:08;;;;;;;3.10;2.80;;;16.00;90.60;;;;;;5059928;28;20452;-74
2021/05/31 00:06:43;;;;;;;3.03;2.73;;;16.00;90.70;;;;;;5042287;28;20299;-73
2021/05/31 00:09:08;;;;;;;4.93;3.50;;;16.10;90.70;;;;;;5043010;28;20224;-73
2021/05/31 00:11:35;;;;;;;3.60;3.10;;;16.00;90.60;;;;;;5043035;28;20452;-73
2021/05/31 00:14:01;;;;;;;3.27;2.97;;;15.90;90.80;;;;;;5042307;28;20483;-74
2021/05/31 00:16:27;;;;;;;3.70;3.40;;;15.90;90.80;;;;;;5025593;28;20461;-73
2021/05/31 00:18:52;;;;;;;3.80;3.33;;;15.90;90.80;;;;;;5042747;28;20460;-74
2021/05/31 00:21:18;;;;;;;5.23;3.40;;;15.80;90.90;;;;;;5009378;28;20205;-73
2021/05/31 00:23:45;;;;;;;7.67;4.13;;;15.80;90.80;;;;;;5047379;28;20297;-74
2021/05/31 00:26:15;;;;;;;4.77;3.50;;;15.80;90.90;;;;;;5045870;28;20467;-73
2021/05/31 00:28:41;;;;;;;2.80;2.60;;;15.70;90.90;;;;;;5034005;28;20508;-73
2021/05/31 00:31:07;;;;;;;3.57;2.50;;;15.60;90.90;;;;;;5041119;28;21051;-73
2021/05/31 00:33:33;;;;;;;3.63;3.30;;;15.60;91.00;;;;;;5026574;28;20420;-73
2021/05/31 00:35:58;;;;;;;4.07;3.20;;;15.60;90.90;;;;;;5042743;28;20300;-73
2021/05/31 00:38:24;;;;;;;2.97;2.63;;;15.50;91.00;;;;;;4993004;28;20681;-73
2021/05/31 00:40:49;;;;;;;3.20;2.90;;;15.40;91.40;;;;;;5025968;28;20228;-73
2021/05/31 00:44:05;;;;;;;5.27;2.90;;;15.30;91.30;;;;;;5025176;28;20293;-73
2021/05/31 00:46:30;;;;;;;3.17;2.67;;;15.30;91.40;;;;;;5025953;28;20231;-73
2021/05/31 00:48:56;;;;;;;4.33;3.90;;;15.30;91.40;;;;;;5009068;28;20461;-73
2021/05/31 00:51:55;;;;;;;3.63;3.30;;;15.40;91.40;;;;;;4992576;28;20730;-73
2021/05/31 00:54:22;;;;;;;4.20;3.30;;;15.30;91.30;;;;;;5005742;28;20230;-74
2021/05/31 00:56:49;;;;;;;3.77;3.37;;;15.30;91.40;;;;;;5015917;28;20462;-73
2021/05/31 00:59:15;;;;;;;3.20;2.87;;;15.40;91.40;;;;;;5039366;28;20569;-74
2021/05/31 01:01:41;;;;;;;5.60;2.83;;;15.40;91.40;;;;;;5047114;28;20460;-74
2021/05/31 01:04:06;;;;;;;3.20;2.83;;;15.30;91.30;;;;;;5024996;28;20459;-73
2021/05/31 01:06:36;;;;;;;3.07;2.80;;;15.30;91.30;;;;;;5042387;28;20224;-73
2021/05/31 01:09:25;;;;;;;2.90;2.70;;;15.30;91.30;;;;;;5008823;28;20225;-73
2021/05/31 01:12:13;;;;;;;3.20;2.83;;;15.30;91.40;;;;;;5038439;28;20448;-73
2021/05/31 01:14:43;;;;;;;4.60;3.20;;;15.10;91.50;;;;;;5041986;28;20464;-74
2021/05/31 01:17:26;;;;;;;3.07;2.60;;;15.10;91.60;;;;;;5041834;28;20526;-73
2021/05/31 01:19:52;;;;;;;5.33;3.30;;;15.10;91.60;;;;;;4992305;28;20463;-73
2021/05/31 01:22:21;;;;;;;3.60;3.30;;;15.00;91.50;;;;;;5041102;28;20464;-73
2021/05/31 01:24:49;;;;;;;4.17;3.77;;;15.00;91.50;;;;;;5025689;28;20229;-74
2021/05/31 01:27:22;;;;;;;3.70;3.20;;;14.90;91.60;;;;;;5034808;28;20535;-73
2021/05/31 01:29:52;;;;;;;4.27;3.13;;;14.90;91.60;;;;;;5056852;28;21097;-73
2021/05/31 01:32:25;;;;;;;6.93;3.73;;;14.90;91.60;;;;;;5004173;28;20452;-73
2021/05/31 01:34:53;;;;;;;3.90;3.50;;;14.90;91.70;;;;;;5041151;28;20472;-74
2021/05/31 01:37:21;;;;;;;4.03;2.83;;;14.80;91.90;;;;;;5041416;28;20444;-73
2021/05/31 01:39:50;;;;;;;2.37;2.17;;;14.60;91.90;;;;;;5009020;28;20445;-74
2021/05/31 01:42:19;;;;;;;2.57;2.37;;;14.60;91.90;;;;;;5057857;28;20467;-74
2021/05/31 01:44:45;;;;;;;3.13;2.80;;;14.70;91.90;;;;;;5057424;28;20457;-74
2021/05/31 01:47:12;;;;;;;3.30;3.00;;;14.70;91.90;;;;;;5027389;28;20881;-74
2021/05/31 01:49:38;;;;;;;3.37;2.80;;;14.70;91.90;;;;;;5044219;28;20528;-74
2021/05/31 01:52:39;;;;;;;4.90;3.30;;;14.60;91.90;;;;;;5058416;28;20475;-74
2021/05/31 01:55:05;;;;;;;4.90;3.17;;;14.60;91.90;;;;;;5060819;28;20471;-74
2021/05/31 01:57:31;;;;;;;3.90;3.40;;;14.60;92.10;;;;;;5045073;28;20452;-73
2021/05/31 01:59:57;;;;;;;4.43;3.63;;;14.60;91.90;;;;;;5051206;28;20501;-73
2021/05/31 02:02:23;;;;;;;3.67;3.10;;;14.40;92.00;;;;;;5028479;28;20512;-73
2021/05/31 02:04:49;;;;;;;4.03;3.10;;;14.50;92.10;;;;;;5044691;28;20458;-73
2021/05/31 02:07:15;;;;;;;3.80;2.90;;;14.50;92.20;;;;;;5006399;28;20449;-73
2021/05/31 02:09:41;;;;;;;4.50;3.57;;;14.40;92.10;;;;;;5035580;28;20228;-74
2021/05/31 02:12:10;;;;;;;5.70;3.03;;;14.50;92.20;;;;;;5044842;28;20827;-73
2021/05/31 02:15:14;;;;;;;7.03;2.93;;;14.40;92.10;;;;;;5061709;28;20343;-73
2021/05/31 02:17:49;;;;;;;6.87;3.70;;;14.40;92.20;;;;;;5060985;28;20463;-74
2021/05/31 02:20:18;;;;;;;4.00;3.03;;;14.30;92.20;;;;;;5029243;28;20451;-73
2021/05/31 02:22:47;;;;;;;4.37;3.00;;;14.40;92.30;;;;;;5080816;28;20478;-73
2021/05/31 02:25:14;;;;;;;6.53;2.70;;;14.30;92.20;;;;;;5027758;28;20540;-73
2021/05/31 02:27:42;;;;;;;3.80;3.30;;;14.30;92.30;;;;;;5079934;28;20455;-73
2021/05/31 02:30:08;;;;;;;4.13;3.27;;;14.30;92.30;;;;;;5066035;28;20504;-74
2021/05/31 02:32:34;;;;;;;4.00;2.93;;;14.30;92.20;;;;;;5067282;28;20463;-73
2021/05/31 02:35:00;;;;;;;7.83;4.07;;;14.20;92.20;;;;;;5032215;28;20482;-74
2021/05/31 02:37:36;;;;;;;12.73;4.53;;;14.10;92.40;;;;;;5050771;28;20225;-74
2021/05/31 02:40:06;;;;;;;12.30;3.90;;;14.00;92.40;;;;;;5083838;28;20223;-73
2021/05/31 02:42:40;;;;;;;44.70;7.00;;;14.00;92.50;;;;;;5066372;28;20473;-73
2021/05/31 02:45:07;;;;;;;4.20;3.13;;;14.00;92.40;;;;;;5063592;28;20680;-74
2021/05/31 02:47:33;;;;;;;13.50;3.50;;;14.00;92.50;;;;;;5064872;28;20530;-73
2021/05/31 02:49:58;;;;;;;3.93;3.27;;;14.00;92.50;;;;;;5013943;28;20551;-73
2021/05/31 02:52:24;;;;;;;3.60;3.30;;;14.00;92.50;;;;;;5047675;28;20220;-73
2021/05/31 02:54:50;;;;;;;4.00;2.80;;;14.00;92.40;;;;;;5048091;28;20236;-73
2021/05/31 02:57:17;;;;;;;4.50;2.67;;;14.00;92.40;;;;;;5030361;28;20228;-73
2021/05/31 02:59:42;;;;;;;4.10;3.43;;;13.80;92.40;;;;;;5088749;28;20247;-74
2021/05/31 03:02:42;;;;;;;3.60;3.30;;;13.90;92.50;;;;;;5047019;28;20982;-73
2021/05/31 03:05:11;;;;;;;3.00;2.70;;;13.80;92.50;;;;;;5031092;28;20251;-74
2021/05/31 03:07:37;;;;;;;5.80;3.93;;;13.80;92.60;;;;;;5046981;28;20447;-73
2021/05/31 03:10:04;;;;;;;3.43;3.13;;;13.80;92.50;;;;;;5066993;28;20446;-74
2021/05/31 03:12:30;;;;;;;3.10;2.57;;;13.80;92.60;;;;;;5067310;28;20261;-73
2021/05/31 03:14:56;;;;;;;6.40;3.10;;;13.80;92.60;;;;;;5067121;28;20479;-73
2021/05/31 03:17:22;;;;;;;3.20;2.90;;;13.80;92.50;;;;;;5084316;28;20721;-73
2021/05/31 03:19:48;;;;;;;4.13;3.70;;;13.80;92.60;;;;;;5050653;28;20224;-73
2021/05/31 03:22:15;;;;;;;4.37;3.40;;;13.70;92.50;;;;;;5066966;28;20710;-73
2021/05/31 03:24:40;;;;;;;6.40;3.97;;;13.70;92.60;;;;;;5066951;28;20458;-73
2021/05/31 03:27:06;;;;;;;3.17;2.87;;;13.60;92.60;;;;;;5059762;28;20519;-73
2021/05/31 03:29:32;;;;;;;3.67;2.67;;;13.60;92.60;;;;;;5069233;28;20274;-73
2021/05/31 03:31:58;;;;;;;4.90;3.00;;;13.70;92.70;;;;;;5008595;28;20307;-73
2021/05/31 03:34:24;;;;;;;4.90;3.37;;;13.60;92.60;;;;;;5033197;28;20227;-73
2021/05/31 03:36:50;;;;;;;4.37;3.00;;;13.60;92.60;;;;;;5075591;28;20580;-73
2021/05/31 03:39:15;;;;;;;3.57;2.93;;;13.60;92.60;;;;;;5057338;28;20234;-73
2021/05/31 03:41:41;;;;;;;5.77;3.80;;;13.60;92.60;;;;;;5061850;28;20336;-73
2021/05/31 03:44:07;;;;;;;4.77;3.57;;;13.60;92.60;;;;;;5066131;28;20224;-73
2021/05/31 03:46:33;;;;;;;4.63;3.70;;;13.60;92.60;;;;;;5050284;28;20217;-73
2021/05/31 03:48:58;;;;;;;3.30;2.63;;;13.50;92.50;;;;;;5046163;28;20465;-73
2021/05/31 03:51:24;;;;;;;3.47;3.07;;;13.50;92.50;;;;;;5013638;28;20232;-73
2021/05/31 03:53:51;;;;;;;2.97;2.53;;;13.50;92.70;;;;;;5013348;28;20400;-73
2021/05/31 03:56:16;;;;;;;2.87;2.53;;;13.50;92.60;;;;;;5029529;28;20455;-73
2021/05/31 03:58:44;;;;;;;4.33;3.60;;;13.40;92.70;;;;;;5062502;28;20466;-73
2021/05/31 04:01:12;;;;;;;4.70;2.83;;;13.40;92.70;;;;;;5034520;28;20219;-74
2021/05/31 04:03:38;;;;;;;6.57;3.40;;;13.30;92.70;;;;;;5029364;28;20451;-74
2021/05/31 04:14:02;;;;;;;3.93;2.87;;;13.20;93.30;;;;;;5089534;28;21062;-73
2021/05/31 04:16:27;;;;;;;4.30;2.77;;;13.10;93.70;;;;;;5065937;28;20478;-73
2021/05/31 04:18:53;;;;;;;3.33;2.40;;;13.10;93.50;;;;;;5066072;28;20220;-73
2021/05/31 04:21:19;;;;;;;3.63;3.13;;;13.20;93.50;;;;;;5064844;28;20214;-73
2021/05/31 04:23:44;;;;;;;3.43;3.13;;;13.20;93.50;;;;;;5037691;28;20601;-73
2021/05/31 04:26:10;;;;;;;3.10;2.80;;;13.20;93.50;;;;;;5084493;28;20233;-73
2021/05/31 04:28:36;;;;;;;6.47;2.60;;;13.20;93.50;;;;;;5042683;28;20216;-73
2021/05/31 04:31:01;;;;;;;3.10;2.70;;;13.20;93.30;;;;;;5020349;28;20212;-74
2021/05/31 04:33:27;;;;;;;2.60;2.40;;;13.30;93.30;;;;;;5011761;28;20672;-73
2021/05/31 04:35:54;;;;;;;3.73;3.10;;;13.30;93.20;;;;;;5027306;28;20278;-73
2021/05/31 04:38:22;;;;;;;3.53;2.57;;;13.30;93.40;;;;;;5053989;28;20287;-73
2021/05/31 04:40:48;;;;;;;3.10;2.77;;;13.40;93.30;;;;;;5049362;28;20867;-73
2021/05/31 04:43:14;;;;;;;3.53;3.00;;;13.40;93.30;;;;;;5050257;28;20450;-73
2021/05/31 04:45:39;;;;;;;3.20;2.80;;;13.30;93.10;;;;;;5041463;28;20229;-73
2021/05/31 04:48:05;;;;;;;3.90;2.83;;;13.40;93.20;;;;;;5022499;28;20220;-73
2021/05/31 04:50:31;;;;;;;2.90;2.43;;;13.40;93.20;;;;;;5015950;28;20303;-73
2021/05/31 04:52:57;;;;;;;2.90;2.70;;;13.40;93.20;;;;;;5025114;28;20243;-73
2021/05/31 04:55:22;;;;;;;3.70;3.10;;;13.40;93.40;;;;;;5043456;28;20235;-73
2021/05/31 04:57:48;;;;;;;5.23;3.03;;;13.40;93.30;;;;;;5026745;28;20267;-74
2021/05/31 05:00:15;;;;;;;3.27;2.73;;;13.40;93.40;;;;;;5044880;28;20219;-73
2021/05/31 05:02:41;;;;;;;4.57;2.77;;;13.50;93.40;;;;;;5070260;28;20601;-74
2021/05/31 05:05:08;;;;;;;2.77;2.57;;;13.50;93.70;;;;;;5048282;28;20462;-74
2021/05/31 05:07:33;;;;;;;4.93;2.90;;;13.50;93.40;;;;;;5034609;28;20221;-74
2021/05/31 05:09:59;;;;;;;2.47;2.27;;;13.60;93.50;;;;;;5013055;28;20486;-73
2021/05/31 05:12:25;;;;;;;2.40;2.20;;;13.60;93.60;;;;;;5045294;28;20216;-73
2021/05/31 05:14:50;;;;;;;3.03;2.67;;;13.60;93.90;;;;;;5010618;28;20278;-74
2021/05/31 05:17:16;;;;;;;3.83;2.57;;;13.70;93.90;;;;;;5078342;28;20250;-73
2021/05/31 05:19:42;;;;;;;4.20;2.70;;;13.60;93.70;;;;;;5045297;28;20231;-73
2021/05/31 05:22:08;;;;;;;3.13;2.80;;;13.70;93.80;;;;;;5028112;28;20277;-73
2021/05/31 05:24:33;;;;;;;3.87;2.73;;;13.70;93.70;;;;;;5078399;28;20224;-73
2021/05/31 05:27:05;;;;;;;3.77;2.40;;;13.70;94.00;;;;;;5078712;28;20609;-73
2021/05/31 05:29:31;;;;;;;3.10;2.80;;;13.70;93.80;;;;;;5070840;28;20220;-73
2021/05/31 05:31:58;;;;;;;3.33;2.83;;;13.80;93.80;;;;;;5030473;28;20470;-73
2021/05/31 05:34:24;;;;;;;4.17;2.63;;;13.80;94.20;;;;;;5056043;28;20466;-73
2021/05/31 05:36:53;;;;;;;6.57;3.30;;;13.90;94.00;;;;;;5041631;28;20825;-73
2021/05/31 05:49:30;;;;;;;2.73;2.50;;;14.20;94.70;;;;;;5061795;28;20290;-74
2021/05/31 05:51:55;;;;;;;2.20;2.03;;;14.30;94.60;;;;;;5012262;28;20685;-74
2021/05/31 05:54:21;;;;;;;3.13;2.70;;;14.30;94.80;;;;;;4993905;28;20248;-74
2021/05/31 05:56:47;;;;;;;3.13;2.13;;;14.40;94.80;;;;;;5079451;28;20251;-74
2021/05/31 05:59:12;;;;;;;2.60;2.40;;;14.50;94.80;;;;;;5046919;28;20692;-73
2021/05/31 06:01:38;;;;;;;6.57;2.63;;;14.50;94.80;;;;;;5047728;28;20221;-74
2021/05/31 06:04:04;;;;;;;4.00;2.60;;;14.60;94.90;;;;;;5048096;28;20568;-74
2021/05/31 06:06:30;;;;;;;3.73;3.03;;;14.60;94.90;;;;;;5048183;28;20322;-73
2021/05/31 06:08:56;;;;;;;3.83;2.70;;;14.70;94.90;;;;;;5072173;28;20228;-74
2021/05/31 06:11:24;;;;;;;2.20;2.00;;;14.80;94.80;;;;;;5033364;28;20451;-74
2021/05/31 06:13:51;;;;;;;3.07;2.33;;;14.80;95.00;;;;;;5016119;28;20221;-73
2021/05/31 06:16:17;;;;;;;2.93;2.67;;;14.90;95.10;;;;;;5031767;28;20451;-74
2021/05/31 06:18:43;;;;;;;5.40;2.90;;;15.00;95.20;;;;;;5015530;28;20826;-74
2021/05/31 06:21:09;;;;;;;4.47;2.90;;;15.10;95.40;;;;;;5031342;28;20456;-73
2021/05/31 06:23:34;;;;;;;3.97;2.60;;;15.20;95.50;;;;;;5040092;28;20251;-73
2021/05/31 06:26:00;;;;;;;3.33;2.33;;;15.20;95.40;;;;;;5048307;28;20217;-73
2021/05/31 06:28:26;;;;;;;2.70;2.30;;;15.30;95.60;;;;;;5029607;28;20700;-73
2021/05/31 06:30:52;;;;;;;3.57;2.57;;;15.40;95.40;;;;;;5040569;28;20917;-74
2021/05/31 06:33:18;;;;;;;3.40;3.03;;;15.50;95.50;;;;;;5078207;28;20695;-73
2021/05/31 06:35:45;;;;;;;4.80;2.60;;;15.50;95.60;;;;;;5052707;28;20477;-74
2021/05/31 06:38:11;;;;;;;4.27;3.13;;;15.60;95.20;;;;;;5067352;28;20520;-74
2021/05/31 06:40:37;;;;;;;2.87;2.60;;;15.70;95.40;;;;;;5049948;28;20965;-73
2021/05/31 06:43:03;;;;;;;3.17;2.83;;;15.70;95.30;;;;;;5075843;28;20227;-73
2021/05/31 06:45:30;;;;;;;3.00;2.53;;;15.70;95.30;;;;;;5071061;28;20241;-73
2021/05/31 06:48:00;;;;;;;4.90;3.40;;;15.80;95.30;;;;;;5075362;28;20456;-73
2021/05/31 06:50:29;;;;;;;2.80;2.40;;;15.80;95.10;;;;;;5084661;28;20878;-73
2021/05/31 06:52:55;;;;;;;6.10;2.43;;;15.90;95.00;;;;;;5050223;28;20466;-73
2021/05/31 06:55:22;;;;;;;6.47;2.70;;;16.00;95.30;;;;;;5051871;28;20958;-73
2021/05/31 06:57:50;;;;;;;3.27;2.33;;;16.10;95.20;;;;;;5044428;28;20494;-73
2021/05/31 07:00:20;;;;;;;2.50;2.30;;;16.20;95.10;;;;;;5014188;28;20455;-74
2021/05/31 07:02:46;;;;;;;2.73;2.53;;;16.30;95.00;;;;;;5047944;28;20462;-73
2021/05/31 07:05:12;;;;;;;2.27;1.90;;;16.40;94.80;;;;;;5046057;28;20463;-74
2021/05/31 07:07:38;;;;;;;2.97;2.40;;;16.60;94.90;;;;;;5063172;28;20216;-74
2021/05/31 07:10:05;;;;;;;3.67;2.03;;;16.70;94.40;;;;;;5039251;28;20451;-74
2021/05/31 07:12:32;;;;;;;2.73;2.53;;;16.70;94.30;;;;;;5047507;28;20224;-73
2021/05/31 07:14:59;;;;;;;2.57;2.37;;;16.80;94.50;;;;;;5081014;28;20975;-74
2021/05/31 07:17:26;;;;;;;2.43;2.23;;;16.80;94.20;;;;;;5010889;28;20826;-74
2021/05/31 07:20:15;;;;;;;2.37;2.27;;;17.00;94.20;;;;;;5042721;28;20980;-74
2021/05/31 07:22:43;;;;;;;2.13;1.93;;;17.00;94.00;;;;;;5026281;28;20877;-74
2021/05/31 07:25:10;;;;;;;2.70;2.50;;;17.10;93.60;;;;;;5030490;28;20463;-74
2021/05/31 07:27:36;;;;;;;3.67;2.70;;;17.20;93.80;;;;;;5030630;28;20455;-73
2021/05/31 07:30:07;;;;;;;2.43;2.10;;;17.20;93.80;;;;;;5047088;28;20590;-74
2021/05/31 07:32:34;;;;;;;2.60;2.30;;;17.30;93.70;;;;;;5054179;28;20449;-73
2021/05/31 07:35:00;;;;;;;3.40;3.10;;;17.40;93.60;;;;;;5009289;28;20472;-74
2021/05/31 07:37:26;;;;;;;2.30;2.10;;;17.50;93.20;;;;;;5026289;28;20585;-73
2021/05/31 07:39:51;;;;;;;4.13;1.93;;;17.60;93.10;;;;;;5066731;28;20439;-73
2021/05/31 07:42:17;;;;;;;2.40;2.17;;;17.70;93.00;;;;;;5056150;28;20240;-74
2021/05/31 07:44:44;;;;;;;2.00;1.90;;;17.80;92.90;;;;;;5058211;28;20224;-74
2021/05/31 07:47:09;;;;;;;2.60;2.40;;;17.80;92.90;;;;;;5053764;28;20580;-74
2021/05/31 07:49:35;;;;;;;3.53;2.43;;;17.90;92.80;;;;;;5011819;28;20983;-74
2021/05/31 07:52:09;;;;;;;2.73;2.17;;;18.10;92.90;;;;;;5011336;28;20225;-74
2021/05/31 07:54:35;;;;;;;2.77;2.00;;;18.10;92.30;;;;;;5059979;28;20608;-74
2021/05/31 07:57:01;;;;;;;2.90;2.67;;;18.20;92.00;;;;;;4993751;28;20527;-74
2021/05/31 07:59:27;;;;;;;2.27;2.10;;;18.30;91.90;;;;;;4993851;28;20228;-74
2021/05/31 08:01:52;;;;;;;2.43;2.13;;;18.40;92.40;;;;;;5058114;28;20224;-74
2021/05/31 08:04:18;;;;;;;3.27;2.47;;;18.50;91.60;;;;;;5005988;28;20234;-74
2021/05/31 08:06:44;;;;;;;2.87;2.57;;;18.60;91.50;;;;;;5039252;28;20238;-74
2021/05/31 08:09:10;;;;;;;3.30;2.50;;;18.70;91.20;;;;;;5019370;28;20274;-74
2021/05/31 08:11:35;;;;;;;2.30;2.20;;;18.80;91.20;;;;;;5030413;28;20243;-74
2021/05/31 08:14:01;;;;;;;2.70;2.50;;;18.80;91.40;;;;;;5046088;28;20221;-74
2021/05/31 08:16:27;;;;;;;2.10;1.90;;;18.90;91.10;;;;;;5055299;28;20229;-74
2021/05/31 08:18:53;;;;;;;2.40;2.20;;;19.00;91.20;;;;;;5014873;28;20232;-74
2021/05/31 08:21:19;;;;;;;2.67;2.47;;;19.10;91.40;;;;;;5009873;28;20221;-73
2021/05/31 08:23:45;;;;;;;1.90;1.70;;;19.00;90.40;;;;;;5067354;28;20212;-74
2021/05/31 08:26:10;;;;;;;2.20;2.00;;;19.00;90.80;;;;;;5045506;28;21017;-74
2021/05/31 08:28:36;;;;;;;2.47;2.20;;;19.10;91.10;;;;;;5049523;28;20217;-73
2021/05/31 08:31:18;;;;;;;2.50;2.30;;;19.30;90.60;;;;;;5008716;28;20232;-74
2021/05/31 08:33:44;;;;;;;3.10;2.50;;;19.40;90.50;;;;;;5042506;28;20240;-74
2021/05/31 08:36:10;;;;;;;3.10;2.60;;;19.50;90.50;;;;;;5028014;28;20475;-73
2021/05/31 08:38:36;;;;;;;2.03;1.93;;;19.60;90.80;;;;;;5039160;28;20221;-74
2021/05/31 08:41:02;;;;;;;2.50;2.30;;;19.70;90.20;;;;;;5052986;28;20208;-74
2021/05/31 08:43:28;;;;;;;2.80;2.07;;;19.80;90.40;;;;;;5043382;28;20813;-74
2021/05/31 08:45:54;;;;;;;3.90;2.57;;;19.90;89.50;;;;;;5002214;28;20324;-74
2021/05/31 08:48:22;;;;;;;3.80;2.50;;;20.00;89.20;;;;;;5024941;28;20228;-74
2021/05/31 08:50:48;;;;;;;3.13;2.50;;;19.90;88.10;;;;;;5024700;28;20988;-74
2021/05/31 08:53:14;;;;;;;2.27;2.07;;;20.00;88.80;;;;;;5008437;28;20463;-74
2021/05/31 08:55:40;;;;;;;3.10;2.30;;;20.10;88.20;;;;;;5024694;28;20225;-74
2021/05/31 08:58:06;;;;;;;3.63;2.43;;;20.20;87.70;;;;;;5044299;28;20216;-74
2021/05/31 09:00:35;;;;;;;3.90;2.33;;;20.20;88.70;;;;;;5053912;28;20975;-74
2021/05/31 09:03:03;;;;;;;1.90;1.80;;;20.30;89.20;;;;;;5076968;28;20451;-74
2021/05/31 09:05:36;;;;;;;2.70;2.50;;;20.40;88.00;;;;;;5043484;28;20459;-74
2021/05/31 09:08:13;;;;;;;2.13;1.80;;;20.50;87.60;;;;;;5041903;28;20539;-74
2021/05/31 09:10:47;;;;;;;4.60;2.50;;;20.50;85.50;;;;;;5042623;28;20528;-74
2021/05/31 09:13:34;;;;;;;1.97;1.87;;;20.40;84.10;;;;;;5041845;28;20456;-74
2021/05/31 09:16:13;;;;;;;2.10;1.90;;;20.30;83.90;;;;;;5013326;28;20472;-74
2021/05/31 09:18:44;;;;;;;2.50;2.40;;;20.50;84.10;;;;;;5062930;28;20469;-74
2021/05/31 09:21:25;;;;;;;5.60;2.23;;;20.60;85.00;;;;;;5029123;28;20451;-73
2021/05/31 09:24:02;;;;;;;2.40;1.90;;;20.70;83.40;;;;;;5028625;28;20467;-73
2021/05/31 09:26:29;;;;;;;3.77;2.40;;;20.70;83.10;;;;;;5062511;28;20454;-74
2021/05/31 09:29:00;;;;;;;2.57;2.20;;;20.80;83.40;;;;;;5046477;28;21027;-73
2021/05/31 09:31:27;;;;;;;5.53;2.70;;;21.00;83.30;;;;;;5049421;28;20492;-73
2021/05/31 09:34:06;;;;;;;2.40;2.20;;;21.10;83.40;;;;;;5014703;28;20885;-73
2021/05/31 09:36:34;;;;;;;2.60;2.40;;;21.20;83.40;;;;;;5032769;28;20455;-74
2021/05/31 09:39:04;;;;;;;2.63;2.43;;;21.30;82.90;;;;;;5015840;28;20926;-73
2021/05/31 09:41:32;;;;;;;2.40;2.20;;;21.40;82.80;;;;;;5065698;28;20458;-74
2021/05/31 09:44:03;;;;;;;2.90;2.70;;;21.50;82.60;;;;;;5049154;28;20462;-74
2021/05/31 09:46:41;;;;;;;2.93;2.63;;;21.60;81.90;;;;;;5032547;28;20450;-73
2021/05/31 09:49:20;;;;;;;2.90;2.60;;;21.70;82.30;;;;;;5064324;28;20461;-74
2021/05/31 09:52:06;;;;;;;2.70;2.50;;;21.60;81.20;;;;;;5031784;28;20470;-74
2021/05/31 09:54:36;;;;;;;3.03;2.73;;;21.70;81.60;;;;;;5058997;28;20556;-74
2021/05/31 09:57:24;;;;;;;3.00;2.60;;;21.70;81.10;;;;;;5046815;28;20551;-74
2021/05/31 09:59:53;;;;;;;2.70;2.33;;;21.80;81.40;;;;;;5061728;28;20534;-74
2021/05/31 10:02:27;;;;;;;3.00;2.80;;;21.80;81.20;;;;;;5043425;28;20490;-73
2021/05/31 10:07:39;;;;;;;2.93;2.63;;;21.90;81.00;;;;;;5010662;28;20964;-74
2021/05/31 10:10:05;;;;;;;2.50;2.30;;;22.00;80.80;;;;;;5025577;28;20454;-74
2021/05/31 10:12:31;;;;;;;3.40;2.60;;;22.00;80.40;;;;;;5059512;28;21040;-73
2021/05/31 10:14:57;;;;;;;3.10;2.90;;;22.10;80.10;;;;;;5017128;28;20473;-74
2021/05/31 10:17:24;;;;;;;4.90;3.83;;;22.00;79.60;;;;;;5057015;28;20247;-74
2021/05/31 10:19:50;;;;;;;3.17;2.93;;;21.80;79.20;;;;;;5042483;28;20779;-74
2021/05/31 10:22:16;;;;;;;2.60;2.40;;;21.70;79.20;;;;;;5048619;28;20473;-74
2021/05/31 10:24:43;;;;;;;2.50;2.30;;;22.00;79.50;;;;;;5052108;28;20227;-76
2021/05/31 10:27:13;;;;;;;2.80;2.60;;;22.30;78.60;;;;;;5067945;28;20507;-74
2021/05/31 10:29:45;;;;;;;2.80;2.60;;;22.50;79.50;;;;;;5017229;28;20453;-73
2021/05/31 10:32:12;;;;;;;3.17;2.87;;;22.60;80.00;;;;;;5019272;28;20467;-74
2021/05/31 10:34:49;;;;;;;2.53;2.27;;;22.60;78.40;;;;;;5012782;28;20459;-74
2021/05/31 10:37:25;;;;;;;3.67;2.80;;;22.60;77.40;;;;;;5044202;28;20982;-74
2021/05/31 10:40:12;;;;;;;2.60;2.40;;;22.60;77.60;;;;;;5027470;28;20459;-74
2021/05/31 10:42:46;;;;;;;4.60;4.20;;;22.60;76.70;;;;;;5047219;28;20454;-74
2021/05/31 10:45:30;;;;;;;2.67;2.47;;;22.80;77.50;;;;;;5032201;28;20462;-74
2021/05/31 10:48:10;;;;;;;2.93;2.63;;;22.90;77.40;;;;;;5048282;28;20461;-74
2021/05/31 10:50:44;;;;;;;3.33;3.00;;;22.90;76.10;;;;;;5027858;28;20527;-74
2021/05/31 10:53:26;;;;;;;3.17;2.87;;;22.80;74.50;;;;;;5043654;28;20574;-74
2021/05/31 10:55:57;;;;;;;2.87;2.50;;;22.70;76.40;;;;;;5012737;28;20492;-74
2021/05/31 10:58:30;;;;;;;3.10;2.80;;;22.80;76.00;;;;;;5044007;28;20870;-74
2021/05/31 11:01:11;;;;;;;2.67;2.40;;;22.80;75.80;;;;;;5044152;28;20551;-74
2021/05/31 11:03:51;;;;;;;3.17;2.77;;;22.80;75.10;;;;;;5039456;28;20458;-74
2021/05/31 11:06:19;;;;;;;3.63;2.90;;;22.90;74.80;;;;;;5025137;28;20561;-74
2021/05/31 11:09:10;;;;;;;7.13;3.13;;;23.10;75.20;;;;;;5029488;28;21017;-74
2021/05/31 11:11:38;;;;;;;2.90;2.70;;;23.10;74.80;;;;;;5026717;28;20486;-74
2021/05/31 11:14:05;;;;;;;2.93;2.73;;;22.70;73.20;;;;;;5073714;28;20463;-74
2021/05/31 11:16:50;;;;;;;3.30;2.60;;;22.80;74.20;;;;;;5047447;28;20455;-74
2021/05/31 11:19:16;;;;;;;3.60;2.70;;;22.80;75.30;;;;;;5063081;28;20455;-74
2021/05/31 11:21:44;;;;;;;2.50;2.30;;;23.00;75.70;;;;;;5030436;28;20516;-74
2021/05/31 11:24:15;;;;;;;3.50;3.20;;;23.20;74.80;;;;;;5045541;28;20751;-74
2021/05/31 11:26:43;;;;;;;3.50;3.20;;;23.20;73.80;;;;;;5064291;28;20467;-74
2021/05/31 11:29:10;;;;;;;3.37;2.60;;;23.00;73.80;;;;;;5029655;28;20455;-74
2021/05/31 11:31:38;;;;;;;2.97;2.77;;;23.00;73.30;;;;;;5059972;28;20464;-74
2021/05/31 11:34:05;;;;;;;2.47;2.30;;;23.10;73.30;;;;;;5009696;28;21045;-74
2021/05/31 11:36:41;;;;;;;4.87;2.80;;;23.30;73.90;;;;;;4993319;28;20452;-74
2021/05/31 11:39:14;;;;;;;3.40;3.10;;;23.50;74.50;;;;;;5027861;28;21085;-74
2021/05/31 11:41:47;;;;;;;4.40;3.00;;;23.00;72.40;;;;;;5061908;28;20939;-74
2021/05/31 11:44:20;;;;;;;6.20;4.30;;;22.80;72.70;;;;;;5037033;28;20587;-74
2021/05/31 11:46:53;;;;;;;4.00;3.53;;;22.60;72.50;;;;;;5010804;28;20490;-74
2021/05/31 11:49:20;;;;;;;3.27;3.07;;;22.70;73.50;;;;;;5008531;28;20505;-74
2021/05/31 11:51:57;;;;;;;2.73;2.53;;;22.70;73.20;;;;;;4992608;28;20467;-74
2021/05/31 11:54:23;;;;;;;3.23;2.93;;;23.00;73.80;;;;;;5027510;28;20502;-74
2021/05/31 11:56:49;;;;;;;2.87;2.67;;;23.30;73.60;;;;;;5029831;28;20878;-74
2021/05/31 11:59:17;;;;;;;3.37;3.00;;;23.60;72.20;;;;;;5045288;28;20319;-74
2021/05/31 12:01:53;;;;;;;2.73;2.53;;;23.60;71.30;;;;;;5045528;28;20494;-74
2021/05/31 12:04:19;;;;;;;3.77;2.87;;;23.70;72.50;;;;;;5006547;28;21209;-74
2021/05/31 12:07:02;;;;;;;2.83;2.63;;;23.90;72.40;;;;;;5070647;28;20454;-74
2021/05/31 12:09:28;;;;;;;3.87;2.80;;;23.90;72.30;;;;;;5042713;28;20446;-74
2021/05/31 12:11:55;;;;;;;2.50;2.30;;;24.00;72.00;;;;;;5045798;28;20474;-74
2021/05/31 12:14:22;;;;;;;2.83;2.27;;;23.90;71.50;;;;;;5028374;28;20462;-74
2021/05/31 12:16:58;;;;;;;2.83;2.63;;;24.00;71.00;;;;;;5040958;28;20897;-74
2021/05/31 12:19:26;;;;;;;3.13;2.93;;;24.00;70.70;;;;;;5062417;28;20447;-74
2021/05/31 12:21:59;;;;;;;3.60;2.97;;;23.90;70.50;;;;;;5046768;28;20483;-74
2021/05/31 12:24:25;;;;;;;3.13;2.83;;;23.90;69.90;;;;;;5056692;28;20529;-74
2021/05/31 12:26:51;;;;;;;3.17;2.60;;;24.00;70.10;;;;;;5065773;28;20529;-74
2021/05/31 12:29:17;;;;;;;3.40;2.67;;;23.90;70.40;;;;;;5045365;28;20219;-74
2021/05/31 12:31:47;;;;;;;3.80;2.63;;;23.90;69.30;;;;;;5028232;28;20467;-74
2021/05/31 12:34:23;;;;;;;2.40;2.20;;;23.80;70.00;;;;;;5061282;28;20266;-74
2021/05/31 12:36:49;;;;;;;3.70;2.40;;;23.90;70.60;;;;;;5070458;28;20515;-74
2021/05/31 12:39:15;;;;;;;4.77;4.03;;;24.00;71.80;;;;;;5072561;28;21001;-74
2021/05/31 12:41:44;;;;;;;3.20;2.80;;;24.10;70.90;;;;;;5051034;28;20240;-74
2021/05/31 12:44:09;;;;;;;2.63;2.43;;;24.10;70.50;;;;;;5090424;28;20446;-74
2021/05/31 12:46:39;;;;;;;3.30;3.00;;;24.10;71.70;;;;;;5065265;28;20477;-74
2021/05/31 12:49:06;;;;;;;3.10;2.80;;;24.10;70.80;;;;;;5060822;28;20228;-74
2021/05/31 12:51:32;;;;;;;3.00;2.80;;;23.90;70.90;;;;;;5077880;28;20463;-74
2021/05/31 12:54:03;;;;;;;5.60;4.10;;;23.50;70.70;;;;;;5052172;28;20508;-74
2021/05/31 12:56:31;;;;;;;2.67;2.43;;;23.60;70.90;;;;;;5059964;28;20461;-74
2021/05/31 12:59:04;;;;;;;3.37;3.07;;;23.60;70.40;;;;;;5066623;28;20458;-74
2021/05/31 13:01:30;;;;;;;3.07;2.87;;;23.50;69.80;;;;;;5008549;28;20467;-73
2021/05/31 13:03:56;;;;;;;3.27;2.70;;;23.70;70.60;;;;;;5057808;28;20464;-74
2021/05/31 13:06:39;;;;;;;3.03;2.77;;;23.70;71.40;;;;;;5058728;28;20811;-74
2021/05/31 13:09:06;;;;;;;3.10;2.90;;;23.80;71.00;;;;;;5031680;28;20853;-74
2021/05/31 13:11:43;;;;;;;2.90;2.50;;;23.90;70.90;;;;;;5044644;28;20520;-74
2021/05/31 13:14:23;;;;;;;2.80;2.60;;;24.00;71.30;;;;;;5023387;28;20723;-74
2021/05/31 13:16:58;;;;;;;3.50;3.20;;;23.90;70.60;;;;;;5041410;28;20800;-74